createdAt,value
2023-03-02T00:04:58.986Z,60.47
2023-03-02T00:10:05.982Z,52.90
2023-03-02T00:15:10.579Z,43.47
2023-03-02T00:20:18.630Z,45.70
2023-03-02T00:25:22.012Z,39.83
2023-03-02T00:30:24.598Z,42.90
2023-03-02T00:35:27.240Z,40.60
2023-03-02T00:40:34.896Z,36.60
2023-03-02T00:45:37.450Z,40.20
2023-03-02T00:50:41.446Z,44.17
2023-03-02T00:55:54.475Z,43.20
2023-03-02T01:01:10.734Z,45.80
2023-03-02T01:06:19.107Z,49.38
2023-03-02T01:11:23.147Z,51.58
2023-03-02T01:16:27.099Z,48.42
2023-03-02T01:21:34.836Z,49.90
2023-03-02T01:26:37.682Z,52.60
2023-03-02T01:31:40.308Z,56.20
2023-03-02T01:36:45.708Z,47.57
2023-03-02T01:41:52.875Z,66.30
2023-03-02T01:46:56.200Z,66.20
2023-03-02T01:52:01.757Z,66.68
2023-03-02T01:57:06.302Z,68.90
2023-03-02T02:02:11.621Z,64.28
2023-03-02T02:07:14.347Z,60.03
2023-03-02T02:12:19.838Z,50.20
2023-03-02T02:17:22.864Z,70.60
2023-03-02T02:22:52.487Z,53.22
2023-03-02T02:28:09.434Z,61.28
2023-03-02T02:33:18.014Z,63.67
2023-03-02T02:38:25.213Z,64.15
2023-03-02T02:43:29.088Z,62.58
2023-03-02T02:48:32.297Z,64.15
2023-03-02T02:54:00.578Z,58.88
2023-03-02T02:59:17.971Z,54.03
2023-03-02T03:04:23.263Z,58.33
2023-03-02T03:09:30.149Z,58.53
2023-03-02T03:14:41.109Z,53.92
2023-03-02T03:19:46.746Z,51.83
2023-03-02T03:24:54.397Z,51.78
2023-03-02T03:29:57.175Z,50.17
2023-03-02T03:35:02.798Z,49.83
2023-03-02T03:40:10.049Z,51.83
2023-03-02T03:45:23.293Z,51.13
2023-03-02T03:50:29.294Z,50.25
2023-03-02T03:55:32.206Z,50.45
2023-03-02T04:00:35.012Z,49.93
2023-03-02T04:05:43.455Z,46.25
2023-03-02T04:10:47.456Z,49.83
2023-03-02T04:15:55.158Z,49.00
2023-03-02T04:21:02.313Z,44.30
2023-03-02T04:26:06.775Z,40.00
2023-03-02T04:31:09.444Z,44.83
2023-03-02T04:36:12.473Z,33.90
2023-03-02T04:41:15.673Z,32.13
2023-03-02T04:46:24.742Z,40.63
2023-03-02T04:51:42.189Z,42.78
2023-03-02T04:56:51.797Z,41.97
2023-03-02T05:01:57.309Z,40.60
2023-03-02T05:07:02.197Z,37.00
2023-03-02T05:12:05.076Z,40.37
2023-03-02T05:17:07.844Z,44.50
2023-03-02T05:22:10.534Z,54.83
2023-03-02T05:27:13.212Z,52.47
2023-03-02T05:32:15.981Z,42.95
2023-03-02T05:37:18.566Z,29.47
2023-03-02T05:42:27.569Z,35.17
2023-03-02T05:47:30.313Z,35.47
2023-03-02T05:52:32.957Z,38.00
2023-03-02T05:57:35.699Z,35.97
2023-03-02T06:02:41.582Z,28.17
2023-03-02T06:07:46.407Z,33.42
2023-03-02T06:12:50.444Z,36.47
2023-03-02T06:17:53.084Z,42.60
2023-03-02T06:22:55.626Z,37.47
2023-03-02T06:27:58.274Z,35.30
2023-03-02T06:33:00.959Z,34.97
2023-03-02T06:38:03.462Z,34.75
2023-03-02T06:43:06.207Z,38.30
2023-03-02T06:48:10.487Z,34.80
2023-03-02T06:53:18.678Z,49.83
2023-03-02T06:58:21.476Z,51.30
2023-03-02T07:03:24.030Z,50.23
2023-03-02T07:08:26.949Z,58.07
2023-03-02T07:18:40.130Z,60.33
2023-03-02T07:23:46.508Z,57.63
2023-03-02T07:28:49.412Z,49.33
2023-03-02T07:33:53.800Z,32.90
2023-03-02T07:38:56.528Z,42.40
2023-03-02T07:43:59.371Z,28.77
2023-03-02T07:49:02.657Z,36.38
2023-03-02T07:54:13.270Z,34.90
2023-03-02T07:59:18.837Z,55.75
2023-03-02T08:04:21.546Z,58.70
2023-03-02T08:09:25.006Z,51.38
2023-03-02T08:14:27.794Z,44.25
2023-03-02T08:19:30.616Z,41.43
2023-03-02T08:24:36.032Z,44.13
2023-03-02T08:29:39.065Z,42.15
2023-03-02T08:34:41.983Z,40.65
2023-03-02T08:39:48.764Z,45.63
2023-03-02T08:45:03.914Z,40.10
2023-03-02T08:50:09.298Z,49.17
2023-03-02T08:55:12.311Z,52.95
2023-03-02T09:00:16.542Z,45.55
2023-03-02T09:05:19.289Z,48.28
2023-03-02T09:10:30.225Z,39.45
2023-03-02T09:15:33.188Z,74.65
2023-03-02T09:20:36.020Z,61.80
2023-03-02T09:25:38.670Z,52.20
2023-03-02T09:30:53.668Z,50.10
2023-03-02T09:35:57.492Z,50.50
2023-03-02T09:41:12.261Z,37.33
2023-03-02T09:46:34.924Z,40.35
2023-03-02T09:52:02.460Z,40.83
2023-03-02T09:57:20.673Z,35.53
2023-03-02T10:02:48.603Z,34.05
2023-03-02T10:07:54.253Z,38.90
2023-03-02T10:13:14.727Z,40.67
2023-03-02T10:18:41.331Z,40.83
2023-03-02T10:24:04.577Z,47.38
2023-03-02T10:29:27.491Z,33.63
2023-03-02T10:34:36.724Z,43.97
2023-03-02T10:39:40.896Z,45.92
2023-03-02T10:44:47.598Z,43.55
2023-03-02T10:49:51.187Z,39.65
2023-03-02T10:55:13.364Z,50.88
2023-03-02T11:00:27.274Z,48.45
2023-03-02T11:05:40.146Z,51.35
2023-03-02T11:11:07.072Z,55.00
2023-03-02T11:16:18.896Z,56.97
2023-03-02T11:21:58.810Z,47.38
2023-03-02T11:27:05.071Z,46.47
2023-03-02T11:32:09.269Z,42.97
2023-03-02T11:37:24.153Z,38.60
2023-03-02T11:42:53.268Z,39.22
2023-03-02T11:48:25.954Z,39.78
2023-03-02T11:53:53.605Z,39.90
2023-03-02T11:58:59.194Z,45.25
2023-03-02T12:04:35.230Z,41.88
2023-03-02T12:09:40.684Z,38.22
2023-03-02T12:14:43.814Z,42.55
2023-03-02T12:19:46.906Z,35.63
2023-03-02T12:25:06.493Z,48.42
2023-03-02T12:30:24.864Z,38.50
2023-03-02T12:35:29.955Z,37.40
2023-03-02T12:40:51.340Z,49.60
2023-03-02T12:46:18.842Z,40.05
2023-03-02T12:51:23.783Z,46.60
2023-03-02T12:56:26.512Z,38.88
2023-03-02T13:01:31.696Z,39.05
2023-03-02T13:06:40.817Z,32.97
2023-03-02T13:11:55.140Z,30.30
2023-03-02T13:22:12.551Z,29.02
2023-03-02T13:27:19.666Z,28.30
2023-03-02T13:32:36.637Z,32.40
2023-03-02T13:37:44.123Z,29.58
2023-03-02T13:42:51.519Z,37.92
2023-03-02T13:47:58.632Z,31.73
2023-03-02T13:53:05.604Z,30.40
2023-03-02T13:58:17.822Z,30.80
2023-03-02T14:03:26.668Z,42.60
2023-03-02T14:08:29.284Z,41.08
2023-03-02T14:13:38.340Z,38.67
2023-03-02T14:18:44.871Z,35.97
2023-03-02T14:23:52.876Z,37.63
2023-03-02T14:29:04.878Z,32.10
2023-03-02T14:34:12.850Z,34.03
2023-03-02T14:39:30.563Z,30.40
2023-03-02T14:44:34.339Z,27.80
2023-03-02T14:49:41.446Z,29.85
2023-03-02T14:54:48.080Z,53.13
2023-03-02T14:59:51.802Z,46.53
2023-03-02T15:09:59.712Z,37.33
2023-03-02T15:15:05.724Z,48.63
2023-03-02T15:20:15.493Z,40.38
2023-03-02T15:25:19.609Z,35.28
2023-03-02T15:30:24.376Z,31.70
2023-03-02T15:35:29.273Z,43.28
2023-03-02T15:40:33.982Z,49.00
2023-03-02T15:45:46.539Z,49.15
2023-03-02T15:51:06.229Z,47.33
2023-03-02T15:56:16.865Z,54.85
2023-03-02T16:01:19.623Z,47.90
2023-03-02T16:06:27.703Z,49.40
2023-03-02T16:11:30.985Z,64.55
2023-03-02T16:16:33.596Z,51.35
2023-03-02T16:21:36.454Z,52.00
2023-03-02T16:26:39.400Z,26.27
2023-03-02T16:31:46.611Z,35.25
2023-03-02T16:36:52.712Z,118.13
2023-03-02T16:41:58.621Z,137.85
2023-03-02T16:47:04.341Z,119.05
2023-03-02T16:52:11.658Z,34.67
2023-03-02T16:57:20.860Z,36.10
2023-03-02T17:02:29.492Z,39.25
2023-03-02T17:07:32.898Z,41.35
2023-03-02T17:12:42.207Z,91.47
2023-03-02T17:17:53.829Z,54.20
2023-03-02T17:23:02.008Z,80.30
2023-03-02T17:28:22.755Z,41.05
2023-03-02T17:33:30.571Z,52.88
2023-03-02T17:38:34.600Z,44.70
2023-03-02T17:43:41.673Z,60.80
2023-03-02T17:48:53.727Z,37.65
2023-03-02T17:54:19.998Z,46.63
2023-03-02T17:59:42.674Z,41.95
2023-03-02T18:04:50.429Z,36.17
2023-03-02T18:15:13.038Z,35.35
2023-03-02T18:20:16.893Z,32.15
2023-03-02T18:25:26.649Z,35.60
2023-03-02T18:30:29.300Z,31.92
2023-03-02T18:35:32.026Z,38.87
2023-03-02T18:40:35.256Z,35.70
2023-03-02T18:45:40.474Z,27.67
2023-03-02T18:50:43.888Z,27.50
2023-03-02T18:55:49.029Z,26.15
2023-03-02T19:00:56.315Z,75.95
2023-03-02T19:05:59.902Z,70.38
2023-03-02T19:11:03.049Z,77.73
2023-03-02T19:16:08.425Z,112.68
2023-03-02T19:21:11.397Z,95.10
2023-03-02T19:26:19.906Z,131.57
2023-03-02T19:31:24.325Z,94.13
2023-03-02T19:36:30.632Z,63.10
2023-03-02T19:41:33.619Z,117.88
2023-03-02T19:46:40.165Z,91.53
2023-03-02T19:51:46.234Z,65.75
2023-03-02T19:56:53.956Z,41.42
2023-03-02T20:01:57.504Z,34.05
2023-03-02T20:07:00.425Z,34.00
2023-03-02T20:12:11.824Z,33.67
2023-03-02T20:17:17.693Z,33.97
2023-03-02T20:22:20.601Z,27.85
2023-03-02T20:27:23.661Z,21.77
2023-03-02T20:32:26.446Z,30.35
2023-03-02T20:37:34.766Z,27.08
2023-03-02T20:42:44.884Z,27.30
2023-03-02T20:47:51.270Z,29.38
2023-03-02T20:52:57.880Z,32.67
2023-03-02T20:58:01.910Z,36.03
2023-03-02T21:03:06.056Z,30.38
2023-03-02T21:08:12.993Z,32.83
2023-03-02T21:13:16.517Z,36.15
2023-03-02T21:18:19.387Z,36.78
2023-03-02T21:23:25.924Z,37.30
2023-03-02T21:28:39.364Z,32.15
2023-03-02T21:33:43.242Z,36.08
2023-03-02T21:38:48.896Z,40.92
2023-03-02T21:43:52.079Z,46.78
2023-03-02T21:48:55.833Z,59.28
2023-03-02T21:59:02.809Z,27.33
2023-03-02T22:04:06.645Z,28.02
2023-03-02T22:09:10.144Z,24.73
2023-03-02T22:14:17.981Z,37.10
2023-03-02T22:19:28.143Z,24.55
2023-03-02T22:24:33.434Z,24.58
2023-03-02T22:29:43.583Z,25.38
2023-03-02T22:34:48.419Z,22.35
2023-03-02T22:39:56.532Z,22.90
2023-03-02T22:45:06.832Z,24.20
2023-03-02T22:50:36.643Z,23.40
2023-03-02T22:55:42.417Z,22.92
2023-03-02T23:00:47.080Z,21.30
2023-03-02T23:05:53.167Z,26.80
2023-03-02T23:10:58.809Z,30.77
2023-03-02T23:16:02.647Z,25.33
2023-03-02T23:21:32.141Z,27.13
2023-03-02T23:26:37.709Z,35.63
2023-03-02T23:31:40.672Z,27.92
2023-03-02T23:36:44.943Z,33.78
2023-03-02T23:41:47.764Z,20.00
2023-03-02T23:46:50.999Z,26.73
2023-03-02T23:51:56.977Z,24.25
2023-03-02T23:56:59.804Z,16.93
